< < Back
Terminal Aerodrome Forecast


Current Version              Previous Versions:   1  2  3  4  5  6  7  8  9  

Terminal Aerodrome Forecast

085
FTUS42 KJAX 031614 AAC
TAFSSI
TAF AMD
KSSI 031614Z 0316/0412 15010G17KT P6SM VCSH OVC025
     FM032000 14010G17KT P6SM -SHRA VCTS OVC030CB
     FM040000 22006KT P6SM SCT020 BKN060
     FM040300 24006KT P6SM SCT025 BKN250=



Latest METAR

688
SAUS70 KWBC 040056
MTRSSI
METAR KSSI 040053Z AUTO 21005KT 10SM SCT015 BKN021 BKN026 27/25 A2986
RMK AO2 SLP111 T02720250


USA.gov is the U.S. government's official web portal to all federal, state and local government web resources and services.